sensor_id;sensor_type;location;lat;lon;timestamp;P1;durP1;ratioP1;P2;durP2;ratioP2
40373;SDS011;26079;45.958;12.492;2024-03-02T00:02:00;12.52;;;2.65;;
40373;SDS011;26079;45.958;12.492;2024-03-02T00:04:26;10.85;;;3.33;;
40373;SDS011;26079;45.958;12.492;2024-03-02T00:06:52;6.82;;;2.92;;
40373;SDS011;26079;45.958;12.492;2024-03-02T00:09:21;13.20;;;2.55;;
40373;SDS011;26079;45.958;12.492;2024-03-02T00:11:46;12.38;;;2.35;;
40373;SDS011;26079;45.958;12.492;2024-03-02T00:14:12;13.30;;;2.35;;
40373;SDS011;26079;45.958;12.492;2024-03-02T00:16:38;8.32;;;2.55;;
40373;SDS011;26079;45.958;12.492;2024-03-02T00:19:05;10.23;;;2.15;;
40373;SDS011;26079;45.958;12.492;2024-03-02T00:21:32;14.77;;;3.22;;
40373;SDS011;26079;45.958;12.492;2024-03-02T00:23:58;16.90;;;3.70;;
40373;SDS011;26079;45.958;12.492;2024-03-02T00:26:25;7.85;;;2.65;;
40373;SDS011;26079;45.958;12.492;2024-03-02T00:28:52;20.95;;;4.75;;
40373;SDS011;26079;45.958;12.492;2024-03-02T00:31:21;16.23;;;3.97;;
40373;SDS011;26079;45.958;12.492;2024-03-02T00:33:48;14.13;;;3.85;;
40373;SDS011;26079;45.958;12.492;2024-03-02T00:36:24;10.77;;;3.08;;
40373;SDS011;26079;45.958;12.492;2024-03-02T00:38:52;11.15;;;3.08;;
40373;SDS011;26079;45.958;12.492;2024-03-02T00:46:22;11.48;;;3.17;;
40373;SDS011;26079;45.958;12.492;2024-03-02T00:48:55;28.27;;;3.13;;
40373;SDS011;26079;45.958;12.492;2024-03-02T00:51:24;16.48;;;3.25;;
40373;SDS011;26079;45.958;12.492;2024-03-02T00:53:52;17.17;;;3.83;;
40373;SDS011;26079;45.958;12.492;2024-03-02T00:56:21;7.78;;;2.38;;
40373;SDS011;26079;45.958;12.492;2024-03-02T00:58:48;6.53;;;2.67;;
40373;SDS011;26079;45.958;12.492;2024-03-02T01:01:14;12.18;;;2.40;;
40373;SDS011;26079;45.958;12.492;2024-03-02T01:03:41;7.82;;;3.65;;
40373;SDS011;26079;45.958;12.492;2024-03-02T01:06:07;9.50;;;3.00;;
40373;SDS011;26079;45.958;12.492;2024-03-02T01:08:36;15.07;;;2.95;;
40373;SDS011;26079;45.958;12.492;2024-03-02T01:11:02;15.38;;;3.13;;
40373;SDS011;26079;45.958;12.492;2024-03-02T01:13:29;12.90;;;2.53;;
40373;SDS011;26079;45.958;12.492;2024-03-02T01:15:55;11.00;;;2.45;;
40373;SDS011;26079;45.958;12.492;2024-03-02T01:18:21;16.48;;;4.72;;
40373;SDS011;26079;45.958;12.492;2024-03-02T01:20:47;6.10;;;2.35;;
40373;SDS011;26079;45.958;12.492;2024-03-02T01:23:13;8.75;;;2.47;;
40373;SDS011;26079;45.958;12.492;2024-03-02T01:25:39;16.15;;;2.47;;
40373;SDS011;26079;45.958;12.492;2024-03-02T01:28:05;10.07;;;2.50;;
40373;SDS011;26079;45.958;12.492;2024-03-02T01:30:30;15.82;;;2.63;;
40373;SDS011;26079;45.958;12.492;2024-03-02T01:32:56;12.80;;;2.90;;
40373;SDS011;26079;45.958;12.492;2024-03-02T01:35:24;7.75;;;2.22;;
40373;SDS011;26079;45.958;12.492;2024-03-02T01:37:50;9.77;;;1.95;;
40373;SDS011;26079;45.958;12.492;2024-03-02T01:40:15;13.73;;;3.13;;
40373;SDS011;26079;45.958;12.492;2024-03-02T01:42:41;11.93;;;3.40;;
40373;SDS011;26079;45.958;12.492;2024-03-02T01:45:08;8.77;;;2.47;;
40373;SDS011;26079;45.958;12.492;2024-03-02T01:47:34;13.05;;;3.08;;
40373;SDS011;26079;45.958;12.492;2024-03-02T01:50:00;11.85;;;3.65;;
40373;SDS011;26079;45.958;12.492;2024-03-02T01:52:26;13.98;;;5.30;;
40373;SDS011;26079;45.958;12.492;2024-03-02T01:54:52;11.50;;;2.42;;
40373;SDS011;26079;45.958;12.492;2024-03-02T01:57:18;10.68;;;3.30;;
40373;SDS011;26079;45.958;12.492;2024-03-02T01:59:44;11.65;;;3.30;;
40373;SDS011;26079;45.958;12.492;2024-03-02T02:02:13;11.27;;;3.88;;
40373;SDS011;26079;45.958;12.492;2024-03-02T02:04:39;13.32;;;3.17;;
40373;SDS011;26079;45.958;12.492;2024-03-02T02:07:05;18.77;;;3.30;;
40373;SDS011;26079;45.958;12.492;2024-03-02T02:09:31;10.13;;;2.67;;
40373;SDS011;26079;45.958;12.492;2024-03-02T02:11:57;8.63;;;2.90;;
40373;SDS011;26079;45.958;12.492;2024-03-02T02:14:24;12.48;;;2.78;;
40373;SDS011;26079;45.958;12.492;2024-03-02T02:16:50;9.90;;;3.13;;
40373;SDS011;26079;45.958;12.492;2024-03-02T02:19:15;13.38;;;3.38;;
40373;SDS011;26079;45.958;12.492;2024-03-02T02:21:44;22.45;;;9.10;;
40373;SDS011;26079;45.958;12.492;2024-03-02T02:24:10;20.40;;;3.50;;
40373;SDS011;26079;45.958;12.492;2024-03-02T02:26:36;10.85;;;2.15;;
40373;SDS011;26079;45.958;12.492;2024-03-02T02:29:02;4.25;;;1.60;;
40373;SDS011;26079;45.958;12.492;2024-03-02T02:31:36;9.00;;;2.00;;
40373;SDS011;26079;45.958;12.492;2024-03-02T02:34:02;14.23;;;3.75;;
40373;SDS011;26079;45.958;12.492;2024-03-02T02:36:28;7.38;;;3.08;;
40373;SDS011;26079;45.958;12.492;2024-03-02T02:38:54;8.77;;;3.78;;
40373;SDS011;26079;45.958;12.492;2024-03-02T02:41:20;14.55;;;2.35;;
40373;SDS011;26079;45.958;12.492;2024-03-02T02:43:46;8.27;;;2.60;;
40373;SDS011;26079;45.958;12.492;2024-03-02T02:46:11;13.25;;;3.08;;
40373;SDS011;26079;45.958;12.492;2024-03-02T02:48:37;9.02;;;2.55;;
40373;SDS011;26079;45.958;12.492;2024-03-02T02:51:03;15.43;;;2.72;;
40373;SDS011;26079;45.958;12.492;2024-03-02T02:53:28;10.75;;;2.92;;
40373;SDS011;26079;45.958;12.492;2024-03-02T02:55:54;5.38;;;2.58;;
40373;SDS011;26079;45.958;12.492;2024-03-02T02:58:20;10.45;;;2.90;;
40373;SDS011;26079;45.958;12.492;2024-03-02T03:00:46;12.82;;;2.60;;
40373;SDS011;26079;45.958;12.492;2024-03-02T03:03:11;10.27;;;2.95;;
40373;SDS011;26079;45.958;12.492;2024-03-02T03:05:37;11.18;;;3.50;;
40373;SDS011;26079;45.958;12.492;2024-03-02T03:08:03;10.27;;;4.00;;
40373;SDS011;26079;45.958;12.492;2024-03-02T03:10:29;6.90;;;3.85;;
40373;SDS011;26079;45.958;12.492;2024-03-02T03:12:54;8.35;;;3.42;;
40373;SDS011;26079;45.958;12.492;2024-03-02T03:15:21;10.07;;;4.07;;
40373;SDS011;26079;45.958;12.492;2024-03-02T03:17:46;11.52;;;4.03;;
40373;SDS011;26079;45.958;12.492;2024-03-02T03:20:12;9.15;;;3.25;;
40373;SDS011;26079;45.958;12.492;2024-03-02T03:22:39;15.60;;;5.60;;
40373;SDS011;26079;45.958;12.492;2024-03-02T03:25:05;13.20;;;3.17;;
40373;SDS011;26079;45.958;12.492;2024-03-02T03:27:34;13.27;;;2.92;;
40373;SDS011;26079;45.958;12.492;2024-03-02T03:30:01;10.18;;;3.97;;
40373;SDS011;26079;45.958;12.492;2024-03-02T03:32:27;7.10;;;2.38;;
40373;SDS011;26079;45.958;12.492;2024-03-02T03:34:53;7.22;;;2.10;;
40373;SDS011;26079;45.958;12.492;2024-03-02T03:37:19;15.25;;;4.10;;
40373;SDS011;26079;45.958;12.492;2024-03-02T03:39:44;11.98;;;2.72;;
40373;SDS011;26079;45.958;12.492;2024-03-02T03:42:10;8.60;;;2.83;;
40373;SDS011;26079;45.958;12.492;2024-03-02T03:44:36;12.57;;;3.72;;
40373;SDS011;26079;45.958;12.492;2024-03-02T03:47:02;8.52;;;3.63;;
40373;SDS011;26079;45.958;12.492;2024-03-02T03:49:27;10.35;;;3.03;;
40373;SDS011;26079;45.958;12.492;2024-03-02T03:51:53;5.93;;;3.42;;
40373;SDS011;26079;45.958;12.492;2024-03-02T03:54:19;12.20;;;2.75;;
40373;SDS011;26079;45.958;12.492;2024-03-02T03:56:45;7.57;;;2.97;;
40373;SDS011;26079;45.958;12.492;2024-03-02T03:59:10;11.60;;;3.88;;
40373;SDS011;26079;45.958;12.492;2024-03-02T04:01:37;10.63;;;2.28;;
40373;SDS011;26079;45.958;12.492;2024-03-02T04:04:02;12.13;;;4.30;;
40373;SDS011;26079;45.958;12.492;2024-03-02T04:06:28;9.50;;;2.95;;
40373;SDS011;26079;45.958;12.492;2024-03-02T04:08:54;8.00;;;2.17;;
40373;SDS011;26079;45.958;12.492;2024-03-02T04:11:20;7.53;;;2.65;;
40373;SDS011;26079;45.958;12.492;2024-03-02T04:13:46;8.40;;;2.80;;
40373;SDS011;26079;45.958;12.492;2024-03-02T04:16:12;8.55;;;2.42;;
40373;SDS011;26079;45.958;12.492;2024-03-02T04:18:37;6.47;;;2.53;;
40373;SDS011;26079;45.958;12.492;2024-03-02T04:21:04;8.07;;;2.80;;
40373;SDS011;26079;45.958;12.492;2024-03-02T04:23:30;10.40;;;4.63;;
40373;SDS011;26079;45.958;12.492;2024-03-02T04:25:56;4.45;;;2.28;;
40373;SDS011;26079;45.958;12.492;2024-03-02T04:28:22;6.40;;;2.38;;
40373;SDS011;26079;45.958;12.492;2024-03-02T04:30:47;4.43;;;1.85;;
40373;SDS011;26079;45.958;12.492;2024-03-02T04:33:13;9.98;;;2.70;;
40373;SDS011;26079;45.958;12.492;2024-03-02T04:35:39;11.20;;;2.53;;
40373;SDS011;26079;45.958;12.492;2024-03-02T04:38:04;6.85;;;2.20;;
40373;SDS011;26079;45.958;12.492;2024-03-02T04:40:30;14.18;;;2.30;;
40373;SDS011;26079;45.958;12.492;2024-03-02T04:42:57;10.70;;;2.30;;
40373;SDS011;26079;45.958;12.492;2024-03-02T04:45:24;8.43;;;2.38;;
40373;SDS011;26079;45.958;12.492;2024-03-02T04:47:49;5.50;;;1.80;;
40373;SDS011;26079;45.958;12.492;2024-03-02T04:50:15;5.93;;;2.33;;
40373;SDS011;26079;45.958;12.492;2024-03-02T04:52:41;10.65;;;2.08;;
40373;SDS011;26079;45.958;12.492;2024-03-02T04:55:07;4.32;;;2.03;;
40373;SDS011;26079;45.958;12.492;2024-03-02T04:57:44;12.07;;;3.08;;
40373;SDS011;26079;45.958;12.492;2024-03-02T05:00:11;4.05;;;1.42;;
40373;SDS011;26079;45.958;12.492;2024-03-02T05:02:37;7.93;;;1.65;;
40373;SDS011;26079;45.958;12.492;2024-03-02T05:05:03;8.80;;;2.47;;
40373;SDS011;26079;45.958;12.492;2024-03-02T05:07:29;14.75;;;2.33;;
40373;SDS011;26079;45.958;12.492;2024-03-02T05:09:55;11.73;;;2.38;;
40373;SDS011;26079;45.958;12.492;2024-03-02T05:12:21;7.93;;;1.90;;
40373;SDS011;26079;45.958;12.492;2024-03-02T05:15:05;8.85;;;2.05;;
40373;SDS011;26079;45.958;12.492;2024-03-02T05:17:32;6.43;;;2.10;;
40373;SDS011;26079;45.958;12.492;2024-03-02T05:19:58;4.15;;;1.60;;
40373;SDS011;26079;45.958;12.492;2024-03-02T05:22:24;5.53;;;1.25;;
40373;SDS011;26079;45.958;12.492;2024-03-02T05:24:49;4.65;;;1.52;;
40373;SDS011;26079;45.958;12.492;2024-03-02T05:27:15;10.05;;;2.17;;
40373;SDS011;26079;45.958;12.492;2024-03-02T05:29:41;7.10;;;1.85;;
40373;SDS011;26079;45.958;12.492;2024-03-02T05:32:06;7.53;;;2.13;;
40373;SDS011;26079;45.958;12.492;2024-03-02T05:34:32;5.22;;;1.73;;
40373;SDS011;26079;45.958;12.492;2024-03-02T05:37:00;6.07;;;1.85;;
40373;SDS011;26079;45.958;12.492;2024-03-02T05:39:26;12.88;;;2.38;;
40373;SDS011;26079;45.958;12.492;2024-03-02T05:41:52;9.45;;;1.92;;
40373;SDS011;26079;45.958;12.492;2024-03-02T05:44:18;6.95;;;2.67;;
40373;SDS011;26079;45.958;12.492;2024-03-02T05:46:44;4.43;;;2.15;;
40373;SDS011;26079;45.958;12.492;2024-03-02T05:49:10;4.53;;;2.40;;
40373;SDS011;26079;45.958;12.492;2024-03-02T05:51:36;3.83;;;1.80;;
40373;SDS011;26079;45.958;12.492;2024-03-02T05:54:02;5.22;;;2.40;;
40373;SDS011;26079;45.958;12.492;2024-03-02T05:56:28;4.95;;;1.67;;
40373;SDS011;26079;45.958;12.492;2024-03-02T05:58:53;9.70;;;3.67;;
40373;SDS011;26079;45.958;12.492;2024-03-02T06:01:47;9.48;;;2.15;;
40373;SDS011;26079;45.958;12.492;2024-03-02T06:04:15;2.80;;;1.60;;
40373;SDS011;26079;45.958;12.492;2024-03-02T06:06:41;4.93;;;1.95;;
40373;SDS011;26079;45.958;12.492;2024-03-02T06:09:07;11.00;;;2.05;;
40373;SDS011;26079;45.958;12.492;2024-03-02T06:11:33;5.63;;;1.80;;
40373;SDS011;26079;45.958;12.492;2024-03-02T06:14:05;6.70;;;1.50;;
40373;SDS011;26079;45.958;12.492;2024-03-02T06:16:32;5.85;;;1.50;;
40373;SDS011;26079;45.958;12.492;2024-03-02T06:19:00;8.20;;;1.70;;
40373;SDS011;26079;45.958;12.492;2024-03-02T06:21:27;8.38;;;1.70;;
40373;SDS011;26079;45.958;12.492;2024-03-02T06:23:53;7.72;;;1.95;;
40373;SDS011;26079;45.958;12.492;2024-03-02T06:26:19;3.25;;;1.58;;
40373;SDS011;26079;45.958;12.492;2024-03-02T06:28:45;13.88;;;2.70;;
40373;SDS011;26079;45.958;12.492;2024-03-02T06:31:11;4.93;;;1.88;;
40373;SDS011;26079;45.958;12.492;2024-03-02T06:33:37;13.65;;;3.75;;
40373;SDS011;26079;45.958;12.492;2024-03-02T06:36:04;11.05;;;4.47;;
40373;SDS011;26079;45.958;12.492;2024-03-02T06:38:30;9.73;;;6.40;;
40373;SDS011;26079;45.958;12.492;2024-03-02T06:40:58;14.68;;;7.65;;
40373;SDS011;26079;45.958;12.492;2024-03-02T06:43:24;15.48;;;7.82;;
40373;SDS011;26079;45.958;12.492;2024-03-02T06:45:50;14.05;;;6.22;;
40373;SDS011;26079;45.958;12.492;2024-03-02T06:48:16;13.73;;;7.72;;
40373;SDS011;26079;45.958;12.492;2024-03-02T06:50:48;7.95;;;5.88;;
40373;SDS011;26079;45.958;12.492;2024-03-02T06:53:14;13.93;;;3.75;;
40373;SDS011;26079;45.958;12.492;2024-03-02T06:55:43;12.77;;;3.47;;
40373;SDS011;26079;45.958;12.492;2024-03-02T06:58:10;17.63;;;6.20;;
40373;SDS011;26079;45.958;12.492;2024-03-02T07:00:40;5.55;;;2.60;;
40373;SDS011;26079;45.958;12.492;2024-03-02T07:03:06;8.50;;;2.90;;
40373;SDS011;26079;45.958;12.492;2024-03-02T07:05:32;11.18;;;3.78;;
40373;SDS011;26079;45.958;12.492;2024-03-02T07:07:58;7.18;;;3.85;;
40373;SDS011;26079;45.958;12.492;2024-03-02T07:10:24;13.38;;;3.75;;
40373;SDS011;26079;45.958;12.492;2024-03-02T07:12:50;9.23;;;7.05;;
40373;SDS011;26079;45.958;12.492;2024-03-02T07:15:15;6.45;;;4.40;;
40373;SDS011;26079;45.958;12.492;2024-03-02T07:17:55;12.38;;;9.18;;
40373;SDS011;26079;45.958;12.492;2024-03-02T07:20:21;10.82;;;8.38;;
40373;SDS011;26079;45.958;12.492;2024-03-02T07:22:46;14.20;;;4.68;;
40373;SDS011;26079;45.958;12.492;2024-03-02T07:25:12;8.18;;;4.78;;
40373;SDS011;26079;45.958;12.492;2024-03-02T07:27:38;23.20;;;5.78;;
40373;SDS011;26079;45.958;12.492;2024-03-02T07:30:05;12.90;;;8.02;;
40373;SDS011;26079;45.958;12.492;2024-03-02T07:32:31;10.95;;;8.38;;
40373;SDS011;26079;45.958;12.492;2024-03-02T07:34:57;14.10;;;8.43;;
40373;SDS011;26079;45.958;12.492;2024-03-02T07:37:23;17.70;;;8.05;;
40373;SDS011;26079;45.958;12.492;2024-03-02T07:39:49;18.10;;;7.63;;
40373;SDS011;26079;45.958;12.492;2024-03-02T07:42:15;9.63;;;7.35;;
40373;SDS011;26079;45.958;12.492;2024-03-02T07:44:41;13.48;;;5.00;;
40373;SDS011;26079;45.958;12.492;2024-03-02T07:47:09;9.55;;;4.95;;
40373;SDS011;26079;45.958;12.492;2024-03-02T07:49:34;7.90;;;3.88;;
40373;SDS011;26079;45.958;12.492;2024-03-02T07:52:00;9.43;;;3.50;;
40373;SDS011;26079;45.958;12.492;2024-03-02T07:54:26;14.48;;;3.33;;
40373;SDS011;26079;45.958;12.492;2024-03-02T07:56:52;9.23;;;4.22;;
40373;SDS011;26079;45.958;12.492;2024-03-02T07:59:17;8.30;;;5.30;;
40373;SDS011;26079;45.958;12.492;2024-03-02T08:01:43;7.38;;;4.78;;
40373;SDS011;26079;45.958;12.492;2024-03-02T08:04:09;6.53;;;3.55;;
40373;SDS011;26079;45.958;12.492;2024-03-02T08:06:35;4.30;;;2.65;;
40373;SDS011;26079;45.958;12.492;2024-03-02T08:09:01;4.57;;;2.03;;
40373;SDS011;26079;45.958;12.492;2024-03-02T08:11:27;4.90;;;2.30;;
40373;SDS011;26079;45.958;12.492;2024-03-02T08:13:53;5.35;;;2.28;;
40373;SDS011;26079;45.958;12.492;2024-03-02T08:16:20;3.63;;;2.30;;
40373;SDS011;26079;45.958;12.492;2024-03-02T08:18:48;6.25;;;1.77;;
40373;SDS011;26079;45.958;12.492;2024-03-02T08:21:14;5.82;;;2.40;;
40373;SDS011;26079;45.958;12.492;2024-03-02T08:23:40;6.95;;;1.98;;
40373;SDS011;26079;45.958;12.492;2024-03-02T08:26:07;8.00;;;2.67;;
40373;SDS011;26079;45.958;12.492;2024-03-02T08:28:33;5.50;;;2.53;;
40373;SDS011;26079;45.958;12.492;2024-03-02T08:30:59;8.10;;;2.10;;
40373;SDS011;26079;45.958;12.492;2024-03-02T08:33:25;3.83;;;1.95;;
40373;SDS011;26079;45.958;12.492;2024-03-02T08:35:51;8.60;;;2.05;;
40373;SDS011;26079;45.958;12.492;2024-03-02T08:38:17;7.78;;;3.13;;
40373;SDS011;26079;45.958;12.492;2024-03-02T08:40:43;6.97;;;2.97;;
40373;SDS011;26079;45.958;12.492;2024-03-02T08:43:09;6.53;;;3.30;;
40373;SDS011;26079;45.958;12.492;2024-03-02T08:45:35;14.57;;;3.90;;
40373;SDS011;26079;45.958;12.492;2024-03-02T08:48:01;8.07;;;3.97;;
40373;SDS011;26079;45.958;12.492;2024-03-02T08:50:27;12.55;;;2.80;;
40373;SDS011;26079;45.958;12.492;2024-03-02T08:52:53;4.72;;;2.85;;
40373;SDS011;26079;45.958;12.492;2024-03-02T08:55:18;6.10;;;2.92;;
40373;SDS011;26079;45.958;12.492;2024-03-02T08:57:44;11.10;;;5.63;;
40373;SDS011;26079;45.958;12.492;2024-03-02T09:00:10;10.48;;;5.70;;
40373;SDS011;26079;45.958;12.492;2024-03-02T09:02:36;7.93;;;4.00;;
40373;SDS011;26079;45.958;12.492;2024-03-02T09:05:02;4.05;;;2.83;;
40373;SDS011;26079;45.958;12.492;2024-03-02T09:07:29;6.57;;;3.20;;
40373;SDS011;26079;45.958;12.492;2024-03-02T09:09:54;13.40;;;2.40;;
40373;SDS011;26079;45.958;12.492;2024-03-02T09:12:20;3.05;;;2.20;;
40373;SDS011;26079;45.958;12.492;2024-03-02T09:14:46;8.70;;;2.47;;
40373;SDS011;26079;45.958;12.492;2024-03-02T09:17:12;6.18;;;2.85;;
40373;SDS011;26079;45.958;12.492;2024-03-02T09:19:38;4.25;;;2.55;;
40373;SDS011;26079;45.958;12.492;2024-03-02T09:22:05;6.78;;;2.85;;
40373;SDS011;26079;45.958;12.492;2024-03-02T09:24:31;6.72;;;2.63;;
40373;SDS011;26079;45.958;12.492;2024-03-02T09:26:58;4.38;;;2.72;;
40373;SDS011;26079;45.958;12.492;2024-03-02T09:29:24;15.55;;;2.47;;
40373;SDS011;26079;45.958;12.492;2024-03-02T09:31:50;5.35;;;2.10;;
40373;SDS011;26079;45.958;12.492;2024-03-02T09:34:16;6.82;;;2.42;;
40373;SDS011;26079;45.958;12.492;2024-03-02T09:36:42;5.68;;;2.42;;
40373;SDS011;26079;45.958;12.492;2024-03-02T09:39:08;2.58;;;2.08;;
40373;SDS011;26079;45.958;12.492;2024-03-02T09:41:37;3.97;;;2.40;;
40373;SDS011;26079;45.958;12.492;2024-03-02T09:44:04;4.82;;;2.45;;
40373;SDS011;26079;45.958;12.492;2024-03-02T09:46:30;8.40;;;4.20;;
40373;SDS011;26079;45.958;12.492;2024-03-02T09:48:56;7.13;;;3.38;;
40373;SDS011;26079;45.958;12.492;2024-03-02T09:51:22;5.25;;;2.63;;
40373;SDS011;26079;45.958;12.492;2024-03-02T09:53:48;4.72;;;2.58;;
40373;SDS011;26079;45.958;12.492;2024-03-02T09:56:14;6.13;;;2.40;;
40373;SDS011;26079;45.958;12.492;2024-03-02T09:58:43;7.55;;;3.17;;
40373;SDS011;26079;45.958;12.492;2024-03-02T10:01:09;6.07;;;2.40;;
40373;SDS011;26079;45.958;12.492;2024-03-02T10:03:36;9.15;;;3.13;;
40373;SDS011;26079;45.958;12.492;2024-03-02T10:06:21;6.07;;;2.83;;
40373;SDS011;26079;45.958;12.492;2024-03-02T10:08:47;10.60;;;3.88;;
40373;SDS011;26079;45.958;12.492;2024-03-02T10:11:35;7.10;;;2.63;;
40373;SDS011;26079;45.958;12.492;2024-03-02T10:14:09;8.65;;;2.47;;
40373;SDS011;26079;45.958;12.492;2024-03-02T10:16:37;4.72;;;2.72;;
40373;SDS011;26079;45.958;12.492;2024-03-02T10:19:20;14.20;;;2.97;;
40373;SDS011;26079;45.958;12.492;2024-03-02T10:21:49;8.40;;;2.60;;
40373;SDS011;26079;45.958;12.492;2024-03-02T10:24:20;5.32;;;2.42;;
40373;SDS011;26079;45.958;12.492;2024-03-02T10:26:47;4.28;;;2.13;;
40373;SDS011;26079;45.958;12.492;2024-03-02T10:29:13;4.85;;;2.80;;
40373;SDS011;26079;45.958;12.492;2024-03-02T10:31:40;3.85;;;2.78;;
40373;SDS011;26079;45.958;12.492;2024-03-02T10:34:08;10.02;;;2.80;;
40373;SDS011;26079;45.958;12.492;2024-03-02T10:36:34;3.70;;;2.35;;
40373;SDS011;26079;45.958;12.492;2024-03-02T10:39:04;3.45;;;2.50;;
40373;SDS011;26079;45.958;12.492;2024-03-02T10:41:32;8.43;;;2.78;;
40373;SDS011;26079;45.958;12.492;2024-03-02T10:44:05;5.63;;;2.75;;
40373;SDS011;26079;45.958;12.492;2024-03-02T10:46:32;12.30;;;2.65;;
40373;SDS011;26079;45.958;12.492;2024-03-02T10:48:59;4.82;;;2.20;;
40373;SDS011;26079;45.958;12.492;2024-03-02T10:51:27;6.72;;;2.28;;
40373;SDS011;26079;45.958;12.492;2024-03-02T10:53:56;4.07;;;2.08;;
40373;SDS011;26079;45.958;12.492;2024-03-02T10:56:33;14.32;;;3.95;;
40373;SDS011;26079;45.958;12.492;2024-03-02T11:01:32;8.27;;;3.28;;
40373;SDS011;26079;45.958;12.492;2024-03-02T11:03:59;6.15;;;3.63;;
40373;SDS011;26079;45.958;12.492;2024-03-02T11:06:29;4.78;;;2.65;;
40373;SDS011;26079;45.958;12.492;2024-03-02T11:08:58;5.60;;;2.40;;
40373;SDS011;26079;45.958;12.492;2024-03-02T11:11:32;8.98;;;2.75;;
40373;SDS011;26079;45.958;12.492;2024-03-02T11:14:01;8.35;;;2.65;;
40373;SDS011;26079;45.958;12.492;2024-03-02T11:16:36;5.50;;;2.72;;
40373;SDS011;26079;45.958;12.492;2024-03-02T11:19:05;7.88;;;3.50;;
40373;SDS011;26079;45.958;12.492;2024-03-02T11:21:39;5.75;;;3.30;;
40373;SDS011;26079;45.958;12.492;2024-03-02T11:26:49;4.93;;;2.83;;
40373;SDS011;26079;45.958;12.492;2024-03-02T11:32:05;7.47;;;3.55;;
40373;SDS011;26079;45.958;12.492;2024-03-02T11:34:43;7.05;;;3.90;;
40373;SDS011;26079;45.958;12.492;2024-03-02T11:37:12;5.97;;;3.47;;
40373;SDS011;26079;45.958;12.492;2024-03-02T11:39:39;10.10;;;4.78;;
40373;SDS011;26079;45.958;12.492;2024-03-02T11:42:05;9.57;;;3.88;;
40373;SDS011;26079;45.958;12.492;2024-03-02T11:44:34;5.40;;;3.90;;
40373;SDS011;26079;45.958;12.492;2024-03-02T11:47:01;7.10;;;3.25;;
40373;SDS011;26079;45.958;12.492;2024-03-02T11:49:36;5.15;;;3.30;;
40373;SDS011;26079;45.958;12.492;2024-03-02T11:52:07;4.45;;;3.67;;
40373;SDS011;26079;45.958;12.492;2024-03-02T11:54:38;5.80;;;2.95;;
40373;SDS011;26079;45.958;12.492;2024-03-02T11:57:07;5.95;;;3.35;;
40373;SDS011;26079;45.958;12.492;2024-03-02T11:59:33;10.05;;;3.38;;
40373;SDS011;26079;45.958;12.492;2024-03-02T12:01:59;9.05;;;3.60;;
40373;SDS011;26079;45.958;12.492;2024-03-02T12:04:25;5.70;;;3.35;;
40373;SDS011;26079;45.958;12.492;2024-03-02T12:07:09;7.30;;;3.78;;
40373;SDS011;26079;45.958;12.492;2024-03-02T12:09:36;9.35;;;4.90;;
40373;SDS011;26079;45.958;12.492;2024-03-02T12:12:02;7.10;;;4.85;;
40373;SDS011;26079;45.958;12.492;2024-03-02T12:14:29;9.65;;;5.05;;
40373;SDS011;26079;45.958;12.492;2024-03-02T12:16:56;8.85;;;3.72;;
40373;SDS011;26079;45.958;12.492;2024-03-02T12:19:23;6.40;;;4.97;;
40373;SDS011;26079;45.958;12.492;2024-03-02T12:21:50;7.65;;;3.92;;
40373;SDS011;26079;45.958;12.492;2024-03-02T12:24:17;5.30;;;3.53;;
40373;SDS011;26079;45.958;12.492;2024-03-02T12:26:42;4.82;;;4.00;;
40373;SDS011;26079;45.958;12.492;2024-03-02T12:29:09;6.47;;;4.68;;
40373;SDS011;26079;45.958;12.492;2024-03-02T12:31:34;6.93;;;4.35;;
40373;SDS011;26079;45.958;12.492;2024-03-02T12:34:01;6.28;;;4.47;;
40373;SDS011;26079;45.958;12.492;2024-03-02T12:36:28;6.00;;;4.22;;
40373;SDS011;26079;45.958;12.492;2024-03-02T12:38:54;8.48;;;4.63;;
40373;SDS011;26079;45.958;12.492;2024-03-02T12:41:20;9.05;;;4.93;;
40373;SDS011;26079;45.958;12.492;2024-03-02T12:43:46;6.97;;;3.55;;
40373;SDS011;26079;45.958;12.492;2024-03-02T12:46:12;4.28;;;3.03;;
40373;SDS011;26079;45.958;12.492;2024-03-02T12:48:38;3.10;;;2.38;;
40373;SDS011;26079;45.958;12.492;2024-03-02T12:51:07;3.75;;;3.05;;
40373;SDS011;26079;45.958;12.492;2024-03-02T12:53:33;7.53;;;3.13;;
40373;SDS011;26079;45.958;12.492;2024-03-02T12:55:58;2.95;;;2.53;;
40373;SDS011;26079;45.958;12.492;2024-03-02T12:58:24;7.43;;;3.15;;
40373;SDS011;26079;45.958;12.492;2024-03-02T13:01:05;4.63;;;2.45;;
40373;SDS011;26079;45.958;12.492;2024-03-02T13:03:34;3.60;;;2.50;;
40373;SDS011;26079;45.958;12.492;2024-03-02T13:06:04;2.58;;;2.30;;
40373;SDS011;26079;45.958;12.492;2024-03-02T13:08:31;3.53;;;2.35;;
40373;SDS011;26079;45.958;12.492;2024-03-02T13:10:57;2.65;;;2.45;;
40373;SDS011;26079;45.958;12.492;2024-03-02T13:13:23;3.08;;;1.85;;
40373;SDS011;26079;45.958;12.492;2024-03-02T13:15:49;6.05;;;2.67;;
40373;SDS011;26079;45.958;12.492;2024-03-02T13:18:17;2.88;;;1.50;;
40373;SDS011;26079;45.958;12.492;2024-03-02T13:20:43;2.35;;;1.25;;
40373;SDS011;26079;45.958;12.492;2024-03-02T13:23:09;2.13;;;1.92;;
40373;SDS011;26079;45.958;12.492;2024-03-02T13:25:35;4.50;;;2.45;;
40373;SDS011;26079;45.958;12.492;2024-03-02T13:28:00;8.50;;;3.42;;
40373;SDS011;26079;45.958;12.492;2024-03-02T13:30:28;4.00;;;3.15;;
40373;SDS011;26079;45.958;12.492;2024-03-02T13:32:54;2.15;;;1.95;;
40373;SDS011;26079;45.958;12.492;2024-03-02T13:35:20;14.45;;;8.43;;
40373;SDS011;26079;45.958;12.492;2024-03-02T13:37:45;7.72;;;5.40;;
40373;SDS011;26079;45.958;12.492;2024-03-02T13:40:11;6.90;;;4.07;;
40373;SDS011;26079;45.958;12.492;2024-03-02T13:42:42;3.55;;;2.28;;
40373;SDS011;26079;45.958;12.492;2024-03-02T13:45:08;3.50;;;2.30;;
40373;SDS011;26079;45.958;12.492;2024-03-02T13:47:34;2.67;;;2.03;;
40373;SDS011;26079;45.958;12.492;2024-03-02T13:49:59;2.28;;;2.08;;
40373;SDS011;26079;45.958;12.492;2024-03-02T13:52:27;7.13;;;2.03;;
40373;SDS011;26079;45.958;12.492;2024-03-02T13:54:53;4.38;;;2.78;;
40373;SDS011;26079;45.958;12.492;2024-03-02T13:57:19;3.95;;;2.38;;
40373;SDS011;26079;45.958;12.492;2024-03-02T13:59:45;2.80;;;1.40;;
40373;SDS011;26079;45.958;12.492;2024-03-02T14:02:11;2.17;;;1.70;;
40373;SDS011;26079;45.958;12.492;2024-03-02T14:04:37;5.25;;;2.55;;
40373;SDS011;26079;45.958;12.492;2024-03-02T14:07:04;2.58;;;1.73;;
40373;SDS011;26079;45.958;12.492;2024-03-02T14:09:33;4.05;;;1.35;;
40373;SDS011;26079;45.958;12.492;2024-03-02T14:11:59;5.55;;;1.17;;
40373;SDS011;26079;45.958;12.492;2024-03-02T14:14:28;1.65;;;0.90;;
40373;SDS011;26079;45.958;12.492;2024-03-02T14:16:54;2.97;;;2.10;;
40373;SDS011;26079;45.958;12.492;2024-03-02T14:19:30;2.53;;;1.77;;
40373;SDS011;26079;45.958;12.492;2024-03-02T14:21:57;4.75;;;2.40;;
40373;SDS011;26079;45.958;12.492;2024-03-02T14:24:23;4.80;;;2.65;;
40373;SDS011;26079;45.958;12.492;2024-03-02T14:26:53;6.72;;;3.80;;
40373;SDS011;26079;45.958;12.492;2024-03-02T14:29:18;5.22;;;3.92;;
40373;SDS011;26079;45.958;12.492;2024-03-02T14:31:44;2.22;;;1.90;;
40373;SDS011;26079;45.958;12.492;2024-03-02T14:34:13;2.65;;;2.25;;
40373;SDS011;26079;45.958;12.492;2024-03-02T14:36:39;4.15;;;3.63;;
40373;SDS011;26079;45.958;12.492;2024-03-02T14:39:08;7.90;;;6.47;;
40373;SDS011;26079;45.958;12.492;2024-03-02T14:41:35;8.52;;;4.10;;
40373;SDS011;26079;45.958;12.492;2024-03-02T14:44:01;6.88;;;5.25;;